Time;durP1;ratioP1;P1;durP2;ratioP2;P2;SDS_P1;SDS_P2;PMS_P1;PMS_P2;Temp;Humidity;BMP_temperature;BMP_pressure;BME280_temperature;BME280_humidity;BME280_pressure;Samples;Min_cycle;Max_cycle;Signal;HPM_P1;HPM_P2
2022/07/29 00:00:02;;;;;;;3.83;3.33;;;23.50;91.00;;;;;;5021880;28;20254;-72
2022/07/29 00:02:29;;;;;;;3.87;3.23;;;23.40;91.00;;;;;;5029128;28;20192;-72
2022/07/29 00:04:56;;;;;;;4.20;3.40;;;23.40;91.00;;;;;;4995092;28;20184;-72
2022/07/29 00:07:23;;;;;;;6.43;3.33;;;23.40;90.80;;;;;;5011861;28;20346;-72
2022/07/29 00:09:51;;;;;;;7.10;3.50;;;23.30;90.90;;;;;;5029735;28;20232;-72
2022/07/29 00:12:18;;;;;;;5.15;3.30;;;23.30;90.90;;;;;;5013108;28;20200;-73
2022/07/29 00:14:44;;;;;;;5.87;3.37;;;23.20;90.90;;;;;;5008004;28;20241;-73
2022/07/29 00:17:10;;;;;;;5.87;3.47;;;23.20;91.00;;;;;;5011913;28;20203;-72
2022/07/29 00:19:36;;;;;;;9.82;3.63;;;23.30;91.10;;;;;;5030083;28;20193;-72
2022/07/29 00:22:03;;;;;;;4.50;3.40;;;23.30;91.00;;;;;;5009527;28;20674;-72
2022/07/29 00:24:29;;;;;;;8.53;3.70;;;23.20;91.00;;;;;;5029077;28;20196;-72
2022/07/29 00:26:56;;;;;;;5.10;3.37;;;23.20;91.00;;;;;;5011958;28;20188;-72
2022/07/29 00:29:22;;;;;;;5.37;3.70;;;23.10;91.00;;;;;;5029574;28;20208;-72
2022/07/29 00:31:48;;;;;;;4.77;3.60;;;23.20;91.10;;;;;;5012382;28;20188;-72
2022/07/29 00:37:00;;;;;;;4.73;3.50;;;23.20;91.20;;;;;;5028301;28;20250;-72
2022/07/29 00:39:26;;;;;;;5.07;3.90;;;23.30;91.20;;;;;;5011330;28;20261;-73
2022/07/29 00:41:52;;;;;;;4.00;3.60;;;23.30;91.10;;;;;;5035993;28;20188;-72
2022/07/29 00:44:19;;;;;;;5.30;3.67;;;23.30;91.20;;;;;;5006125;28;20662;-72
2022/07/29 00:46:45;;;;;;;4.30;3.60;;;23.30;91.20;;;;;;5027438;28;20719;-73
2022/07/29 00:49:12;;;;;;;4.03;3.57;;;23.30;91.30;;;;;;5027491;28;20267;-72
2022/07/29 00:51:39;;;;;;;8.60;3.80;;;23.40;91.30;;;;;;5004448;28;20270;-73
2022/07/29 00:54:05;;;;;;;4.30;3.90;;;23.30;91.20;;;;;;5008663;28;20196;-72
2022/07/29 00:56:34;;;;;;;5.43;4.00;;;23.30;91.30;;;;;;5028369;28;20184;-72
2022/07/29 00:59:01;;;;;;;5.73;3.93;;;23.30;91.30;;;;;;5020470;28;20766;-72
2022/07/29 01:01:28;;;;;;;4.40;3.80;;;23.30;91.40;;;;;;5011207;28;20192;-72
2022/07/29 01:03:55;;;;;;;4.77;3.47;;;23.20;91.40;;;;;;5007119;28;20694;-72
2022/07/29 01:06:22;;;;;;;5.57;3.80;;;23.30;91.30;;;;;;5027197;28;20186;-72
2022/07/29 01:08:50;;;;;;;6.63;4.13;;;23.20;91.30;;;;;;5026840;28;20257;-72
2022/07/29 01:11:17;;;;;;;6.20;4.20;;;23.20;91.40;;;;;;4994228;28;20192;-72
2022/07/29 01:13:47;;;;;;;7.97;3.77;;;23.10;91.80;;;;;;4992738;28;20193;-72
2022/07/29 01:16:57;;;;;;;4.60;3.60;;;23.10;91.60;;;;;;5010694;28;20203;-72
2022/07/29 01:19:49;;;;;;;5.10;3.80;;;23.10;91.60;;;;;;4986500;28;20209;-72
2022/07/29 01:23:03;;;;;;;6.43;4.13;;;23.10;91.60;;;;;;5009068;28;20191;-72
2022/07/29 01:25:54;;;;;;;5.50;3.60;;;23.10;91.50;;;;;;5001271;28;20386;-72
2022/07/29 01:28:39;;;;;;;3.90;3.60;;;23.00;91.50;;;;;;5027307;28;20188;-72
2022/07/29 01:31:09;;;;;;;4.23;3.83;;;23.00;91.50;;;;;;5002641;28;20192;-72
2022/07/29 01:33:48;;;;;;;4.13;3.73;;;23.00;91.50;;;;;;5027290;28;20275;-72
2022/07/29 01:36:32;;;;;;;8.53;3.97;;;23.00;91.50;;;;;;5028385;28;20180;-72
2022/07/29 01:39:13;;;;;;;4.25;3.78;;;23.00;91.60;;;;;;5003340;28;20682;-72
2022/07/29 01:41:59;;;;;;;4.67;3.77;;;22.80;91.60;;;;;;4995533;28;20703;-72
2022/07/29 01:44:41;;;;;;;5.97;4.10;;;22.80;91.60;;;;;;5011249;28;20545;-72
2022/07/29 01:47:21;;;;;;;8.87;3.73;;;22.80;91.60;;;;;;5014895;28;20227;-72
2022/07/29 01:49:56;;;;;;;6.80;3.93;;;22.70;91.70;;;;;;5024777;28;20183;-72
2022/07/29 01:52:37;;;;;;;8.27;3.77;;;22.70;91.80;;;;;;5024037;28;20188;-72
2022/07/29 01:55:13;;;;;;;7.03;4.20;;;22.70;91.80;;;;;;5018267;28;20191;-72
2022/07/29 01:57:43;;;;;;;4.63;4.00;;;22.70;91.70;;;;;;5008621;28;20215;-72
2022/07/29 02:00:11;;;;;;;7.90;4.90;;;22.70;91.70;;;;;;4994119;28;20212;-72
2022/07/29 02:02:42;;;;;;;8.10;4.30;;;22.70;91.60;;;;;;5010903;28;20676;-72
2022/07/29 02:05:14;;;;;;;6.33;4.20;;;22.70;91.40;;;;;;4991652;28;20184;-72
2022/07/29 02:07:47;;;;;;;6.80;4.20;;;22.70;91.30;;;;;;5026512;28;20228;-72
2022/07/29 02:10:18;;;;;;;4.93;4.30;;;22.70;91.40;;;;;;5006350;28;20192;-72
2022/07/29 02:12:47;;;;;;;5.20;4.03;;;22.70;91.40;;;;;;5026400;28;20188;-72
2022/07/29 02:15:16;;;;;;;4.70;3.80;;;22.70;91.50;;;;;;5009796;28;20683;-72
2022/07/29 02:17:53;;;;;;;7.07;4.30;;;22.70;91.40;;;;;;5008359;28;20196;-72
2022/07/29 02:20:22;;;;;;;4.50;3.70;;;22.70;91.30;;;;;;5023883;28;20196;-72
2022/07/29 02:22:51;;;;;;;6.07;3.87;;;22.70;91.10;;;;;;4988414;28;20216;-72
2022/07/29 02:25:20;;;;;;;6.80;3.80;;;22.70;90.90;;;;;;5014794;28;20190;-72
2022/07/29 02:27:50;;;;;;;4.90;3.60;;;22.70;90.60;;;;;;5025811;28;20196;-72
2022/07/29 02:30:19;;;;;;;4.80;3.90;;;22.70;90.60;;;;;;5009967;28;20196;-72
2022/07/29 02:32:49;;;;;;;10.37;4.33;;;22.80;90.50;;;;;;5009699;28;20196;-72
2022/07/29 02:35:18;;;;;;;4.67;3.80;;;22.80;90.40;;;;;;5008191;28;20187;-72
2022/07/29 02:38:50;;;;;;;5.40;4.15;;;22.90;90.50;;;;;;5006526;28;20231;-72
2022/07/29 02:40:39;;;;;;;5.73;4.70;;;22.90;90.40;;;;;;5007537;28;20932;-72
2022/07/29 02:43:09;;;;;;;7.63;4.57;;;22.90;90.20;;;;;;5014427;28;20191;-72
2022/07/29 02:45:36;;;;;;;10.00;4.50;;;23.00;90.30;;;;;;4994257;28;20188;-72
2022/07/29 02:48:15;;;;;;;4.73;4.23;;;23.00;90.20;;;;;;5023044;28;20997;-72
2022/07/29 02:50:59;;;;;;;9.20;4.73;;;23.00;90.30;;;;;;5027114;28;20305;-72
2022/07/29 02:53:32;;;;;;;13.37;4.57;;;23.00;90.00;;;;;;5005502;28;20184;-72
2022/07/29 02:56:14;;;;;;;9.50;4.23;;;23.00;90.00;;;;;;5018627;28;20192;-72
2022/07/29 02:58:50;;;;;;;8.17;3.77;;;23.10;89.70;;;;;;5022083;28;20215;-72
2022/07/29 03:01:23;;;;;;;5.35;3.88;;;23.10;89.50;;;;;;5028072;28;20246;-72
2022/07/29 03:03:53;;;;;;;4.33;4.00;;;23.20;89.40;;;;;;5010544;28;20185;-72
2022/07/29 03:06:25;;;;;;;4.10;3.70;;;23.20;89.10;;;;;;5008991;28;20187;-72
2022/07/29 03:08:53;;;;;;;7.90;3.90;;;23.20;89.00;;;;;;5009492;28;20842;-72
2022/07/29 03:11:21;;;;;;;3.97;3.50;;;23.30;88.20;;;;;;5024342;28;20187;-72
2022/07/29 03:13:47;;;;;;;7.10;3.20;;;23.40;87.80;;;;;;4997097;28;20191;-72
2022/07/29 03:16:15;;;;;;;5.37;2.90;;;23.40;87.80;;;;;;4994222;28;20191;-72
2022/07/29 03:18:42;;;;;;;9.03;3.10;;;23.40;87.40;;;;;;5009645;28;20242;-72
2022/07/29 03:21:09;;;;;;;4.60;3.17;;;23.40;87.40;;;;;;5009258;28;20231;-72
2022/07/29 03:23:36;;;;;;;3.67;2.97;;;23.50;87.20;;;;;;5010410;28;20597;-72
2022/07/29 03:26:04;;;;;;;3.38;2.95;;;23.50;86.70;;;;;;5021107;28;20183;-72
2022/07/29 03:28:30;;;;;;;4.28;3.10;;;23.50;86.70;;;;;;5028386;28;20219;-72
2022/07/29 03:30:57;;;;;;;7.90;3.20;;;23.50;86.90;;;;;;5015029;28;20184;-72
2022/07/29 03:33:23;;;;;;;4.00;3.60;;;23.60;87.20;;;;;;5013772;28;20242;-72
2022/07/29 03:35:51;;;;;;;3.30;3.00;;;23.60;87.00;;;;;;5014466;28;20306;-72
2022/07/29 03:38:17;;;;;;;4.67;3.57;;;23.70;87.10;;;;;;4995338;28;20238;-72
2022/07/29 03:40:54;;;;;;;4.50;3.20;;;23.70;86.90;;;;;;5033530;28;20199;-72
2022/07/29 03:43:22;;;;;;;3.33;2.93;;;23.80;87.10;;;;;;5002790;28;20717;-72
2022/07/29 03:45:54;;;;;;;5.03;3.13;;;23.80;86.60;;;;;;4998565;28;20180;-72
2022/07/29 03:48:25;;;;;;;4.75;3.13;;;23.80;86.10;;;;;;5013055;28;20869;-72
2022/07/29 03:50:52;;;;;;;4.05;2.85;;;23.90;86.00;;;;;;5018124;28;20196;-72
2022/07/29 03:53:18;;;;;;;4.77;2.80;;;24.00;85.70;;;;;;5013238;28;20238;-72
2022/07/29 03:55:53;;;;;;;3.40;2.45;;;24.00;86.00;;;;;;5036428;28;20269;-72
2022/07/29 03:58:21;;;;;;;5.03;2.50;;;24.00;85.90;;;;;;5030776;28;20624;-72
2022/07/29 04:00:48;;;;;;;5.85;2.58;;;24.00;86.00;;;;;;5012563;28;20224;-72
2022/07/29 04:03:14;;;;;;;6.75;2.60;;;24.00;86.80;;;;;;5032743;28;20267;-72
2022/07/29 04:05:41;;;;;;;3.08;2.45;;;24.00;86.40;;;;;;5015684;28;20259;-72
2022/07/29 04:08:07;;;;;;;4.30;2.65;;;23.90;87.70;;;;;;5013108;28;20189;-72
2022/07/29 04:10:34;;;;;;;3.58;2.30;;;23.90;88.00;;;;;;5016664;28;20192;-72
2022/07/29 04:13:00;;;;;;;5.32;2.20;;;23.80;87.90;;;;;;5030079;28;20223;-72
2022/07/29 04:15:28;;;;;;;4.18;2.38;;;23.80;88.80;;;;;;4995695;28;20191;-72
2022/07/29 04:17:55;;;;;;;3.05;2.60;;;23.70;88.90;;;;;;4990775;28;20242;-72
2022/07/29 04:20:21;;;;;;;2.97;2.40;;;23.60;89.20;;;;;;5029729;28;20196;-72
2022/07/29 04:22:48;;;;;;;4.22;2.28;;;23.60;89.60;;;;;;5032551;28;20266;-72
2022/07/29 04:25:14;;;;;;;5.10;2.30;;;23.70;89.80;;;;;;5014576;28;20640;-72
2022/07/29 04:27:59;;;;;;;3.42;2.20;;;23.70;89.60;;;;;;4997151;28;20270;-73
2022/07/29 04:30:26;;;;;;;7.40;2.75;;;23.80;90.00;;;;;;5031436;28;20777;-72
2022/07/29 04:32:52;;;;;;;2.50;2.20;;;23.80;90.10;;;;;;4996538;28;20214;-72
2022/07/29 04:35:20;;;;;;;3.70;2.15;;;23.80;90.00;;;;;;5031355;28;20188;-72
2022/07/29 04:37:46;;;;;;;4.97;2.50;;;23.90;90.30;;;;;;5028834;28;20663;-72
2022/07/29 04:40:13;;;;;;;2.55;1.90;;;24.00;90.70;;;;;;5030090;28;20524;-72
2022/07/29 04:42:40;;;;;;;5.13;2.22;;;24.00;91.00;;;;;;5022164;28;20233;-72
2022/07/29 04:45:09;;;;;;;4.00;2.30;;;24.10;90.60;;;;;;5030100;28;20187;-72
2022/07/29 04:47:35;;;;;;;3.80;2.17;;;24.20;91.30;;;;;;5028504;28;20216;-72
2022/07/29 04:50:02;;;;;;;2.70;2.00;;;24.30;91.30;;;;;;5030743;28;20181;-72
2022/07/29 04:52:29;;;;;;;2.55;2.10;;;24.40;91.00;;;;;;5017009;28;20188;-72
2022/07/29 04:54:55;;;;;;;2.80;2.10;;;24.50;91.50;;;;;;5013778;28;20172;-72
2022/07/29 04:57:23;;;;;;;2.13;2.00;;;24.60;91.80;;;;;;5013429;28;20228;-72
2022/07/29 04:59:50;;;;;;;3.40;2.00;;;24.70;91.70;;;;;;5008758;28;20184;-72
2022/07/29 05:02:16;;;;;;;2.45;2.20;;;24.80;92.10;;;;;;5013457;28;20706;-72
2022/07/29 05:04:43;;;;;;;2.72;2.22;;;24.90;92.10;;;;;;5012310;28;20192;-72
2022/07/29 05:07:09;;;;;;;4.47;2.50;;;24.90;92.20;;;;;;5028322;28;20219;-72
2022/07/29 05:09:35;;;;;;;5.35;2.38;;;25.00;92.30;;;;;;5030607;28;20515;-72
2022/07/29 05:12:02;;;;;;;2.70;2.50;;;25.10;92.90;;;;;;4996440;28;20656;-72
2022/07/29 05:14:28;;;;;;;2.53;2.10;;;25.20;92.10;;;;;;5013433;28;20211;-72
2022/07/29 05:16:56;;;;;;;5.78;2.50;;;25.20;91.90;;;;;;5028798;28;20194;-72
2022/07/29 05:19:23;;;;;;;3.63;2.20;;;25.30;92.10;;;;;;4995378;28;20181;-72
2022/07/29 05:21:50;;;;;;;2.88;2.40;;;25.40;92.60;;;;;;4997379;28;20184;-72
2022/07/29 05:36:18;;;;;;;3.40;2.80;;;25.50;91.80;;;;;;5118426;27;20587;-72
2022/07/29 05:38:44;;;;;;;3.20;2.85;;;25.80;92.10;;;;;;5087343;28;20209;-72
2022/07/29 05:41:11;;;;;;;4.13;2.92;;;25.80;91.70;;;;;;5087746;28;20220;-73
2022/07/29 05:43:37;;;;;;;3.20;2.88;;;25.80;91.80;;;;;;5088811;28;20215;-72
2022/07/29 05:46:03;;;;;;;4.25;3.10;;;25.90;91.40;;;;;;5088848;28;20659;-72
2022/07/29 05:48:30;;;;;;;4.78;3.70;;;25.90;91.40;;;;;;5087751;28;20197;-72
2022/07/29 05:50:56;;;;;;;5.10;3.50;;;25.90;90.30;;;;;;5085921;28;20269;-72
2022/07/29 05:53:23;;;;;;;4.32;3.30;;;26.00;90.70;;;;;;5085871;28;20228;-72
2022/07/29 05:55:50;;;;;;;6.32;3.50;;;26.10;90.60;;;;;;5096405;28;20182;-72
2022/07/29 05:58:17;;;;;;;4.85;3.88;;;26.10;91.00;;;;;;5073429;28;20201;-72
2022/07/29 06:00:44;;;;;;;4.70;4.20;;;26.10;90.70;;;;;;5116157;28;20206;-72
2022/07/29 06:03:11;;;;;;;5.43;4.30;;;26.30;91.00;;;;;;5079731;28;20657;-72
2022/07/29 06:05:37;;;;;;;6.13;4.50;;;26.30;90.40;;;;;;5083109;28;20213;-72
2022/07/29 06:08:07;;;;;;;6.65;4.35;;;26.40;90.70;;;;;;5084116;28;20245;-72
2022/07/29 06:10:35;;;;;;;5.07;4.47;;;26.50;89.70;;;;;;5084387;28;20236;-73
2022/07/29 06:13:01;;;;;;;4.80;4.10;;;26.50;90.30;;;;;;5084505;28;20266;-73
2022/07/29 06:15:28;;;;;;;10.18;4.15;;;26.70;90.30;;;;;;5091378;28;20204;-72
2022/07/29 06:17:54;;;;;;;7.55;4.20;;;26.80;87.30;;;;;;5097818;28;20209;-72
2022/07/29 06:20:20;;;;;;;4.35;3.95;;;26.90;86.40;;;;;;5099175;28;20729;-72
2022/07/29 06:22:47;;;;;;;6.05;4.25;;;27.00;87.90;;;;;;5080267;28;20181;-73
2022/07/29 06:25:14;;;;;;;10.40;4.53;;;27.10;86.50;;;;;;5074136;28;20232;-73
2022/07/29 06:27:40;;;;;;;6.40;4.25;;;27.10;86.30;;;;;;5102811;28;20189;-73
2022/07/29 06:30:07;;;;;;;5.70;4.43;;;27.20;87.00;;;;;;5106834;28;20812;-72
2022/07/29 06:32:35;;;;;;;5.82;4.30;;;27.40;85.60;;;;;;5084696;28;20194;-73
2022/07/29 06:35:02;;;;;;;9.68;4.47;;;27.50;84.60;;;;;;5097968;28;20707;-72
2022/07/29 06:37:29;;;;;;;7.78;4.13;;;27.60;85.30;;;;;;5087266;28;20517;-72
2022/07/29 06:42:45;;;;;;;6.10;4.07;;;27.60;85.30;;;;;;5086909;28;20253;-73
2022/07/29 06:45:12;;;;;;;8.75;4.57;;;27.70;84.90;;;;;;5072981;28;20327;-72
2022/07/29 06:47:38;;;;;;;6.47;4.10;;;27.80;84.90;;;;;;5072327;28;20198;-72
2022/07/29 06:50:06;;;;;;;6.82;4.00;;;27.90;85.20;;;;;;5073207;28;20642;-72
2022/07/29 06:52:33;;;;;;;10.80;4.05;;;28.00;86.60;;;;;;5092160;28;20265;-72
2022/07/29 06:55:00;;;;;;;6.00;4.28;;;28.10;85.60;;;;;;5084187;28;21274;-73
2022/07/29 06:57:27;;;;;;;7.20;3.90;;;28.30;85.80;;;;;;5080910;28;20245;-72
2022/07/29 06:59:56;;;;;;;5.63;3.53;;;28.40;85.40;;;;;;5083275;28;20213;-72
2022/07/29 07:02:23;;;;;;;8.73;3.58;;;28.50;83.50;;;;;;5068377;28;20217;-72
2022/07/29 07:04:49;;;;;;;7.57;3.60;;;28.60;84.40;;;;;;5080124;28;20217;-72
2022/07/29 07:07:16;;;;;;;4.40;3.00;;;28.60;81.40;;;;;;5070710;28;20186;-72
2022/07/29 07:09:44;;;;;;;12.45;3.42;;;28.70;81.50;;;;;;5074627;28;20557;-72
2022/07/29 07:12:10;;;;;;;9.02;3.58;;;28.80;81.20;;;;;;5082130;28;20193;-72
2022/07/29 07:14:39;;;;;;;6.10;3.30;;;28.90;82.40;;;;;;5074508;28;20277;-72
2022/07/29 07:17:06;;;;;;;8.50;3.60;;;29.10;82.00;;;;;;5074000;28;20213;-72
2022/07/29 07:19:33;;;;;;;6.25;3.00;;;29.20;80.00;;;;;;5088130;28;20259;-73
2022/07/29 07:22:00;;;;;;;6.45;3.50;;;29.30;78.30;;;;;;5086462;28;20222;-72
2022/07/29 07:24:27;;;;;;;6.38;3.35;;;29.40;81.80;;;;;;5086704;28;20198;-73
2022/07/29 07:26:54;;;;;;;4.55;3.28;;;29.50;83.10;;;;;;5088891;28;20244;-73
2022/07/29 07:29:32;;;;;;;6.55;3.47;;;29.50;84.00;;;;;;5083535;28;20215;-73
2022/07/29 07:31:59;;;;;;;5.82;3.95;;;29.60;84.20;;;;;;5084992;28;20687;-72
2022/07/29 07:34:25;;;;;;;13.25;4.10;;;29.70;85.90;;;;;;5084658;28;20206;-72
2022/07/29 07:36:52;;;;;;;7.03;3.60;;;29.90;85.60;;;;;;5098107;28;20248;-73
2022/07/29 07:39:19;;;;;;;7.10;3.83;;;30.00;85.90;;;;;;5084449;28;20193;-73
2022/07/29 07:41:45;;;;;;;7.20;4.22;;;30.00;89.20;;;;;;5079761;28;20196;-72
2022/07/29 07:44:11;;;;;;;7.80;3.80;;;30.10;90.70;;;;;;5073979;28;20329;-72
2022/07/29 07:46:38;;;;;;;8.80;4.15;;;30.20;92.60;;;;;;5081225;28;20182;-72
2022/07/29 07:49:04;;;;;;;8.20;4.20;;;30.20;93.00;;;;;;5079832;28;20270;-72
2022/07/29 07:51:31;;;;;;;7.03;4.13;;;30.20;94.00;;;;;;5064442;28;20226;-71
2022/07/29 07:53:57;;;;;;;7.32;4.13;;;30.20;95.10;;;;;;5074421;28;20183;-72
2022/07/29 07:56:23;;;;;;;5.32;3.83;;;30.30;94.50;;;;;;5067766;28;20567;-72
2022/07/29 07:58:50;;;;;;;7.63;4.45;;;30.30;94.50;;;;;;5083446;28;20197;-72
2022/07/29 08:01:18;;;;;;;6.78;4.35;;;30.30;95.50;;;;;;5068419;28;20273;-71
2022/07/29 08:03:45;;;;;;;6.55;4.45;;;30.30;96.40;;;;;;5080449;28;20194;-72
2022/07/29 08:06:11;;;;;;;8.63;4.38;;;30.40;96.10;;;;;;5077187;28;20194;-71
2022/07/29 08:08:38;;;;;;;6.07;4.63;;;30.40;95.10;;;;;;5084285;28;20727;-72
2022/07/29 08:11:06;;;;;;;9.57;4.47;;;30.40;94.10;;;;;;5085137;28;20187;-72
2022/07/29 08:13:33;;;;;;;6.90;4.60;;;30.40;94.90;;;;;;5064772;28;20254;-73
2022/07/29 08:16:01;;;;;;;11.38;4.57;;;30.50;96.10;;;;;;5081972;28;20197;-72
2022/07/29 08:18:31;;;;;;;9.88;4.65;;;30.60;98.20;;;;;;5079237;28;20186;-72
2022/07/29 08:20:58;;;;;;;9.40;4.78;;;30.60;98.70;;;;;;5077932;28;20190;-72
2022/07/29 08:23:26;;;;;;;8.98;4.45;;;30.70;99.90;;;;;;5073955;28;20324;-72
2022/07/29 08:25:53;;;;;;;10.45;5.32;;;30.70;99.90;;;;;;5076658;28;20212;-72
2022/07/29 08:28:19;;;;;;;6.25;4.88;;;30.90;99.60;;;;;;5078776;28;20186;-72
2022/07/29 08:30:47;;;;;;;6.35;4.53;;;30.90;99.90;;;;;;5083651;28;20709;-72
2022/07/29 08:33:13;;;;;;;11.68;5.15;;;30.90;99.90;;;;;;5073367;28;20585;-72
2022/07/29 08:35:40;;;;;;;10.25;4.55;;;31.10;99.90;;;;;;5086780;28;20985;-71
2022/07/29 08:38:06;;;;;;;11.70;4.35;;;31.10;99.90;;;;;;5062426;28;20206;-72
2022/07/29 08:40:33;;;;;;;9.57;4.88;;;31.20;99.90;;;;;;5089685;28;20187;-72
2022/07/29 08:43:06;;;;;;;12.43;4.82;;;31.20;99.90;;;;;;5077098;28;20201;-73
2022/07/29 08:45:44;;;;;;;7.47;4.57;;;31.20;99.90;;;;;;5072234;28;20225;-72
2022/07/29 08:48:14;;;;;;;5.93;4.38;;;31.30;99.90;;;;;;5064040;28;20195;-73
2022/07/29 08:50:43;;;;;;;8.45;4.57;;;31.30;99.40;;;;;;5086493;28;21003;-73
2022/07/29 08:53:16;;;;;;;9.43;4.60;;;31.40;99.60;;;;;;5074355;28;20194;-74
2022/07/29 08:55:50;;;;;;;9.35;4.82;;;31.50;99.40;;;;;;5064356;28;20226;-73
2022/07/29 08:58:17;;;;;;;8.57;5.30;;;31.50;99.80;;;;;;5073864;28;20225;-73
2022/07/29 09:00:53;;;;;;;9.20;4.72;;;31.60;99.40;;;;;;5081594;28;20209;-73
2022/07/29 09:03:24;;;;;;;10.65;4.85;;;31.70;99.30;;;;;;5081599;28;20228;-73
2022/07/29 09:05:52;;;;;;;12.65;4.70;;;31.80;98.90;;;;;;5076746;28;20203;-72
2022/07/29 09:08:19;;;;;;;6.20;4.80;;;32.00;99.40;;;;;;5078935;28;20179;-72
2022/07/29 09:10:46;;;;;;;7.07;4.07;;;32.20;98.70;;;;;;5080875;28;20190;-72
2022/07/29 09:13:13;;;;;;;7.35;4.63;;;32.10;97.90;;;;;;5084557;28;20270;-72
2022/07/29 09:15:39;;;;;;;10.63;5.00;;;32.30;99.30;;;;;;5084129;28;20194;-72
2022/07/29 09:18:07;;;;;;;8.63;4.72;;;32.40;99.20;;;;;;5070223;28;20177;-72
2022/07/29 09:23:18;;;;;;;10.70;4.85;;;32.50;99.10;;;;;;5071051;28;20178;-72
2022/07/29 09:25:45;;;;;;;13.23;4.45;;;32.50;99.00;;;;;;5080907;28;20214;-72
2022/07/29 09:28:17;;;;;;;10.30;4.70;;;32.60;97.90;;;;;;5084508;28;20258;-72
2022/07/29 09:30:58;;;;;;;6.35;4.43;;;32.70;98.30;;;;;;5082996;28;20182;-72
2022/07/29 09:33:35;;;;;;;6.95;4.53;;;32.80;98.90;;;;;;5076524;28;20183;-72
2022/07/29 09:36:08;;;;;;;9.50;4.47;;;32.90;98.60;;;;;;5086485;28;20189;-72
2022/07/29 09:38:36;;;;;;;8.15;5.05;;;32.90;98.90;;;;;;5064433;28;20175;-73
2022/07/29 09:41:07;;;;;;;10.95;4.90;;;33.00;98.30;;;;;;5084834;28;20212;-72
2022/07/29 09:43:34;;;;;;;10.32;4.93;;;33.10;98.20;;;;;;5071875;28;20190;-72
2022/07/29 10:22:13;;;;;;;9.82;4.40;;;33.90;94.70;;;;;;5075878;27;20946;-72
2022/07/29 10:24:40;;;;;;;11.45;4.55;;;34.20;94.40;;;;;;5063835;28;20206;-73
2022/07/29 10:27:09;;;;;;;8.10;4.63;;;34.30;93.30;;;;;;5065546;28;20204;-72
2022/07/29 10:29:36;;;;;;;8.77;4.35;;;34.20;93.30;;;;;;5049886;28;20277;-72
2022/07/29 10:32:38;;;;;;;6.93;3.88;;;34.30;93.40;;;;;;5066070;28;20199;-72
2022/07/29 10:35:38;;;;;;;7.35;4.15;;;34.30;93.00;;;;;;5049877;28;20225;-73
2022/07/29 10:38:36;;;;;;;9.40;4.45;;;34.30;91.70;;;;;;5050877;28;20191;-72
2022/07/29 10:41:39;;;;;;;8.73;4.55;;;34.20;92.30;;;;;;5059376;28;20221;-72
2022/07/29 10:44:19;;;;;;;5.28;3.15;;;34.20;92.30;;;;;;5061979;28;20187;-72
2022/07/29 10:46:47;;;;;;;9.95;3.00;;;34.40;80.70;;;;;;5067376;28;20272;-72
2022/07/29 10:49:33;;;;;;;4.75;2.90;;;34.40;77.10;;;;;;5066150;28;20179;-72
2022/07/29 10:52:10;;;;;;;9.23;3.17;;;34.50;77.00;;;;;;5048835;28;20642;-72
2022/07/29 10:54:39;;;;;;;9.10;3.35;;;34.60;75.00;;;;;;5086583;28;20191;-72
2022/07/29 10:57:29;;;;;;;5.35;3.00;;;34.60;75.50;;;;;;5062412;28;20752;-72
2022/07/29 11:00:07;;;;;;;4.72;3.22;;;34.50;73.70;;;;;;5080204;28;20206;-72
2022/07/29 11:02:34;;;;;;;6.90;3.35;;;34.70;76.30;;;;;;5048525;28;20187;-72
2022/07/29 11:05:05;;;;;;;5.28;3.10;;;34.70;75.70;;;;;;5049352;28;20179;-72
2022/07/29 11:07:34;;;;;;;7.45;2.97;;;34.70;71.90;;;;;;5083069;28;20175;-72
2022/07/29 11:10:16;;;;;;;3.90;3.30;;;34.70;72.80;;;;;;5058021;28;20535;-72
2022/07/29 11:12:47;;;;;;;4.38;3.10;;;34.60;71.90;;;;;;5052400;28;20266;-72
2022/07/29 11:15:17;;;;;;;5.20;2.90;;;34.50;71.40;;;;;;5086180;28;20195;-72
2022/07/29 11:18:00;;;;;;;7.22;3.20;;;34.50;71.60;;;;;;5043809;28;20195;-72
2022/07/29 11:20:47;;;;;;;3.42;3.13;;;34.40;71.30;;;;;;5065701;28;20214;-72
2022/07/29 11:23:31;;;;;;;5.72;3.00;;;34.40;70.80;;;;;;5052410;28;20186;-72
2022/07/29 11:26:21;;;;;;;5.88;3.15;;;34.20;70.10;;;;;;5023663;28;21204;-72
2022/07/29 11:28:53;;;;;;;6.18;3.13;;;34.10;70.80;;;;;;5045888;28;20198;-72
2022/07/29 11:31:36;;;;;;;9.13;3.50;;;34.10;70.60;;;;;;5032494;28;20262;-72
2022/07/29 11:34:32;;;;;;;9.65;4.10;;;34.20;75.00;;;;;;5033098;28;20500;-72
2022/07/29 11:37:08;;;;;;;5.15;3.60;;;34.20;76.30;;;;;;5038739;28;20552;-72
2022/07/29 11:39:56;;;;;;;5.43;4.40;;;34.20;75.80;;;;;;5031405;28;20180;-72
2022/07/29 11:42:25;;;;;;;9.45;4.00;;;34.30;77.40;;;;;;5032913;28;20540;-72
2022/07/29 11:45:28;;;;;;;9.25;3.88;;;34.30;75.50;;;;;;5016529;28;20214;-72
2022/07/29 11:47:59;;;;;;;6.75;3.65;;;34.40;73.80;;;;;;5059134;28;20196;-71
2022/07/29 11:50:40;;;;;;;6.00;3.58;;;34.50;71.80;;;;;;5052526;28;20200;-72
2022/07/29 11:53:16;;;;;;;5.25;3.80;;;34.40;71.20;;;;;;5049509;28;20183;-72
2022/07/29 11:55:57;;;;;;;7.93;3.50;;;34.40;71.90;;;;;;5043751;28;20183;-72
2022/07/29 11:58:24;;;;;;;8.02;3.55;;;34.50;71.90;;;;;;5052759;28;20179;-72
2022/07/29 12:00:52;;;;;;;7.63;3.55;;;34.50;69.90;;;;;;5052500;28;20198;-72
2022/07/29 12:03:28;;;;;;;10.48;3.67;;;34.50;69.00;;;;;;5048324;28;20280;-72
2022/07/29 12:05:55;;;;;;;4.38;3.20;;;34.40;68.70;;;;;;5023054;28;20188;-72
2022/07/29 12:08:25;;;;;;;5.35;3.40;;;34.20;69.00;;;;;;5033320;28;20207;-72
2022/07/29 12:10:52;;;;;;;4.53;3.53;;;34.30;67.90;;;;;;5042071;28;20254;-72
2022/07/29 12:13:21;;;;;;;4.70;3.65;;;34.30;68.10;;;;;;5049486;28;20385;-72
2022/07/29 12:15:57;;;;;;;10.23;3.60;;;34.20;69.50;;;;;;5054360;28;20195;-72
2022/07/29 12:18:25;;;;;;;6.10;3.60;;;34.20;70.70;;;;;;5045799;28;20195;-72
2022/07/29 12:21:04;;;;;;;6.25;3.97;;;34.10;69.20;;;;;;5039482;28;20211;-72
2022/07/29 12:23:32;;;;;;;6.75;3.85;;;34.10;70.20;;;;;;5045811;28;20271;-72
2022/07/29 12:25:59;;;;;;;8.27;3.80;;;34.30;69.70;;;;;;5020211;28;20186;-72
2022/07/29 12:28:29;;;;;;;6.15;3.67;;;34.10;69.70;;;;;;5058193;28;20297;-72
2022/07/29 12:30:56;;;;;;;5.65;3.65;;;34.10;69.90;;;;;;5024438;28;20290;-72
2022/07/29 12:33:27;;;;;;;5.72;3.88;;;34.10;70.80;;;;;;5044618;28;20188;-72
2022/07/29 12:36:00;;;;;;;5.70;3.78;;;34.10;71.30;;;;;;5057512;28;20851;-72
2022/07/29 12:38:27;;;;;;;7.90;4.28;;;34.10;70.10;;;;;;5047815;28;20226;-72
2022/07/29 12:40:55;;;;;;;11.63;4.30;;;34.10;70.80;;;;;;5032294;28;20207;-72
2022/07/29 12:43:25;;;;;;;5.93;4.35;;;34.00;71.00;;;;;;5032750;28;20188;-72
2022/07/29 12:45:58;;;;;;;6.28;3.80;;;33.80;71.40;;;;;;5050588;28;20662;-72
2022/07/29 12:48:43;;;;;;;5.60;3.60;;;33.70;70.10;;;;;;5048303;28;20199;-72
2022/07/29 12:51:14;;;;;;;6.53;3.42;;;33.60;69.90;;;;;;5047631;28;20183;-72
2022/07/29 12:53:40;;;;;;;4.47;3.60;;;33.50;70.30;;;;;;5043724;28;20187;-72
2022/07/29 12:56:16;;;;;;;4.18;3.60;;;33.60;69.70;;;;;;5046061;28;20266;-72
2022/07/29 12:58:44;;;;;;;9.77;4.30;;;33.50;69.80;;;;;;5043851;28;20326;-71
2022/07/29 13:01:17;;;;;;;5.45;3.80;;;33.50;69.70;;;;;;5039322;28;20195;-72
2022/07/29 13:03:47;;;;;;;5.55;3.25;;;33.60;68.80;;;;;;5055423;28;20732;-72
2022/07/29 13:06:29;;;;;;;4.82;3.50;;;33.50;67.50;;;;;;5032569;28;20190;-72
2022/07/29 13:09:17;;;;;;;10.30;4.05;;;33.40;69.30;;;;;;5038990;28;20210;-72
2022/07/29 13:11:49;;;;;;;8.65;4.45;;;33.40;69.50;;;;;;5044921;28;20241;-72
2022/07/29 13:14:38;;;;;;;3.80;3.50;;;33.40;69.20;;;;;;5049825;28;20206;-72
2022/07/29 13:17:10;;;;;;;7.40;3.75;;;33.30;68.40;;;;;;5033434;28;20194;-72
2022/07/29 13:19:42;;;;;;;7.07;3.83;;;33.30;69.60;;;;;;5041883;28;20199;-72
2022/07/29 13:22:17;;;;;;;4.00;3.60;;;33.30;68.70;;;;;;5037848;28;20882;-72
2022/07/29 13:24:51;;;;;;;6.10;3.17;;;33.30;69.40;;;;;;5055435;28;20639;-72
2022/07/29 13:27:22;;;;;;;4.70;3.22;;;33.40;67.50;;;;;;5051668;28;20529;-72
2022/07/29 13:29:51;;;;;;;5.55;3.17;;;33.40;65.10;;;;;;5064177;28;20238;-72
2022/07/29 13:32:18;;;;;;;6.32;3.50;;;33.50;66.20;;;;;;5036544;28;20232;-72
2022/07/29 13:34:44;;;;;;;6.18;3.08;;;33.60;66.10;;;;;;5049225;28;20827;-72
2022/07/29 13:37:10;;;;;;;7.45;3.10;;;33.60;66.00;;;;;;5040201;28;20217;-72
2022/07/29 13:39:37;;;;;;;4.38;2.80;;;33.50;65.80;;;;;;5045038;28;20667;-71
2022/07/29 13:42:08;;;;;;;5.05;3.10;;;33.40;66.90;;;;;;5042806;28;20214;-72
2022/07/29 13:44:35;;;;;;;5.20;3.03;;;33.50;67.30;;;;;;5040041;28;20214;-72
2022/07/29 13:47:02;;;;;;;10.20;3.25;;;33.50;66.80;;;;;;5028871;28;20180;-72
2022/07/29 13:49:29;;;;;;;4.20;2.83;;;33.30;68.30;;;;;;5034622;28;20175;-72
2022/07/29 13:51:56;;;;;;;6.80;4.45;;;33.20;69.00;;;;;;5042876;28;20180;-72
2022/07/29 13:54:22;;;;;;;12.68;6.70;;;33.40;73.80;;;;;;5046798;28;20638;-72
2022/07/29 13:56:50;;;;;;;9.20;5.95;;;33.40;80.50;;;;;;5036162;28;20211;-71
2022/07/29 13:59:16;;;;;;;6.47;5.88;;;33.30;82.00;;;;;;5044210;28;20640;-72